Airfield :







YOU CAN JOIN US ON...

 
LOGIN :

Register | Disclaimer

   EN    FR    IT 

 









Legend :    VFR   Marginal VFR   IFR   Intensive IFR   Very Intensive IFR
Visi :
Ceiling :
>= 8 km
>= 3000ft
5 to 8 km
1000 to 3000 ft
1500m to 5 km
500 to 1000 ft
800 to 1500m
200 to 500 ft
< 800m
< 200 ft
Symbols :   Thunderstorms  Fog  Heavy snow  Heavy precipitations  Wind > 20 kt






- Airport Elevation : 180 ft
- IATA code : YZV


CYZV - Sept-Iles

CURRENT METAR :
  • 040825Z 22011G17KT 5SM BR FEW005 SCT015 BKN032 OVC057 03/03 A2947 RMK ST2ST3SC2SC1 SLP983

EXPIRED METARs :
  • 040800Z 22008KT 15SM FEW015 BKN032 OVC057 03/03 A2946 RMK ST2SC3SC3 VIS W LWR SLP982
  • 040710Z 20010G15KT 15SM FEW015 SCT025 OVC032 04/04 A2946 RMK SC1SC3SC5 SC TR SLP982
  • 040620Z 22012G17KT 15SM -RA FEW004 SCT015 BKN025 OVC032 05/05 A2947 RMK ST1SC3SC2SC3 ST TR SLP984
  • 040600Z 22012G18KT 15SM FEW004 SCT015 OVC032 06/06 A2947 RMK ST1SC4SC4 ST TR SLP984

TAF AMD TAF CYZV
Valid from the 04 at 06:00 until the 05 at 06:00 UTC


040626Z 0406/0506 22010G20KT 6SM -RA BR SCT004 SCT015 OVC030
TEMPO 0406/0410 1SM -RA BR BKN004 OVC015
FM041000 21015G25KT P6SM FEW006 SCT010 OVC030
TEMPO 0410/0411 2SM -RA -DZ BR BKN006 OVC010
PROB30 0410/0411 1SM -RA BR OVC004
FM041100 30020G32KT P6SM BKN040
FM041700 30015G25KT P6SM FEW040
BECMG 0420/0422 30010KT
BECMG 0500/0502 34008KT RMK NXT FCST BY 041200Z
CZUL FIR / North America



MET'MAP, your aeronautical weather chart ! - Copyright ORBIFLY December 2007 - Disclaimer

ORBIFLY MET'MAP TEAM :

Programming & Development : Alexandra Zaïnal
Original concept : Baudouin d'Aumeries
Technical & hardware support : Manuel Goepfert
Assistance : Marc-Olivier Méhu




SOURCES & CREDITS :

   NOAA